createdAt,value
2022-09-03T00:00:52.421Z,4.00
2022-09-03T00:04:06.996Z,4.00
2022-09-03T00:07:15.610Z,4.10
2022-09-03T00:10:26.553Z,4.00
2022-09-03T00:13:36.736Z,4.10
2022-09-03T00:16:49.545Z,3.90
2022-09-03T00:19:57.962Z,3.80
2022-09-03T00:23:04.112Z,4.00
2022-09-03T00:26:12.482Z,3.80
2022-09-03T00:29:21.814Z,3.90
2022-09-03T00:32:34.141Z,3.90
2022-09-03T00:36:03.696Z,3.90
2022-09-03T00:39:07.429Z,3.80
2022-09-03T00:42:31.538Z,4.00
2022-09-03T00:46:07.281Z,3.80
2022-09-03T00:49:28.295Z,4.60
2022-09-03T00:52:48.474Z,3.60
2022-09-03T00:55:58.841Z,3.50
2022-09-03T00:59:18.113Z,4.50
2022-09-03T01:02:22.591Z,3.80
2022-09-03T01:05:27.489Z,4.40
2022-09-03T01:08:51.677Z,3.90
2022-09-03T01:12:18.479Z,4.10
2022-09-03T01:15:34.562Z,3.70
2022-09-03T01:18:49.026Z,4.30
2022-09-03T01:22:06.962Z,4.00
2022-09-03T01:25:24.235Z,4.00
2022-09-03T01:28:54.946Z,3.90
2022-09-03T01:32:07.822Z,4.10
2022-09-03T01:35:28.208Z,4.10
2022-09-03T01:38:48.495Z,3.60
2022-09-03T01:42:20.762Z,3.80
2022-09-03T01:45:41.871Z,3.80
2022-09-03T01:49:07.558Z,3.80
2022-09-03T01:52:27.364Z,3.70
2022-09-03T01:55:37.050Z,4.30
2022-09-03T01:58:39.207Z,4.10
2022-09-03T02:01:58.982Z,4.20
2022-09-03T02:05:10.441Z,4.40
2022-09-03T02:11:14.225Z,4.10
2022-09-03T02:14:16.165Z,4.20
2022-09-03T02:17:18.422Z,4.30
2022-09-03T02:20:23.225Z,4.20
2022-09-03T02:23:28.233Z,4.00
2022-09-03T02:26:30.343Z,4.50
2022-09-03T02:29:32.996Z,4.30
2022-09-03T02:32:34.864Z,4.30
2022-09-03T02:35:36.859Z,4.70
2022-09-03T02:38:42.135Z,4.60
2022-09-03T02:41:45.005Z,4.00
2022-09-03T02:44:50.399Z,4.50
2022-09-03T02:47:56.408Z,4.80
2022-09-03T02:50:58.500Z,4.60
2022-09-03T02:54:00.203Z,4.60
2022-09-03T02:57:02.872Z,4.50
2022-09-03T03:00:05.110Z,4.70
2022-09-03T03:03:07.305Z,4.30
2022-09-03T03:06:09.429Z,4.50
2022-09-03T03:09:11.534Z,4.50
2022-09-03T03:12:13.369Z,4.40
2022-09-03T03:15:15.954Z,4.20
2022-09-03T03:18:17.879Z,4.30
2022-09-03T03:21:19.963Z,4.70
2022-09-03T03:24:21.737Z,4.90
2022-09-03T03:27:24.024Z,4.50
2022-09-03T03:30:25.780Z,4.60
2022-09-03T03:33:27.516Z,4.20
2022-09-03T03:36:32.037Z,4.40
2022-09-03T03:39:33.828Z,4.20
2022-09-03T03:42:35.747Z,4.50
2022-09-03T03:45:37.645Z,4.80
2022-09-03T03:48:39.804Z,4.80
2022-09-03T03:51:41.653Z,4.50
2022-09-03T03:54:43.330Z,4.40
2022-09-03T03:57:44.980Z,6.30
2022-09-03T04:00:49.733Z,4.60
2022-09-03T04:03:52.270Z,4.50
2022-09-03T04:06:56.634Z,5.00
2022-09-03T04:09:58.439Z,4.80
2022-09-03T04:13:01.257Z,4.60
2022-09-03T04:16:07.094Z,4.70
2022-09-03T04:19:08.952Z,5.00
2022-09-03T04:22:10.875Z,4.80
2022-09-03T04:25:12.654Z,4.50
2022-09-03T04:28:15.288Z,4.80
2022-09-03T04:31:19.657Z,4.90
2022-09-03T04:34:21.906Z,5.10
2022-09-03T04:37:23.742Z,5.70
2022-09-03T04:40:25.508Z,5.00
2022-09-03T04:43:28.776Z,5.10
2022-09-03T04:46:33.491Z,4.90
2022-09-03T04:49:35.805Z,4.90
2022-09-03T04:52:38.563Z,5.00
2022-09-03T04:55:40.229Z,5.20
2022-09-03T04:58:44.116Z,5.30
2022-09-03T05:01:46.077Z,4.70
2022-09-03T05:04:48.038Z,4.60
2022-09-03T05:07:49.872Z,5.10
2022-09-03T05:11:00.067Z,4.90
2022-09-03T05:14:01.984Z,5.20
2022-09-03T05:17:03.880Z,5.40
2022-09-03T05:20:10.200Z,5.10
2022-09-03T05:23:11.916Z,6.00
2022-09-03T05:26:16.119Z,5.70
2022-09-03T05:29:20.017Z,6.10
2022-09-03T05:32:21.906Z,5.90
2022-09-03T05:35:26.066Z,5.70
2022-09-03T05:38:32.393Z,5.60
2022-09-03T05:41:34.740Z,5.70
2022-09-03T05:44:37.119Z,5.40
2022-09-03T05:47:40.307Z,6.50
2022-09-03T05:50:42.165Z,6.30
2022-09-03T05:53:47.501Z,6.30
2022-09-03T05:56:49.886Z,5.60
2022-09-03T05:59:52.653Z,5.40
2022-09-03T06:02:54.745Z,5.70
2022-09-03T06:05:56.667Z,6.00
2022-09-03T06:09:00.695Z,5.80
2022-09-03T06:12:03.988Z,6.10
2022-09-03T06:15:07.063Z,5.70
2022-09-03T06:18:08.838Z,5.80
2022-09-03T06:21:10.705Z,6.00
2022-09-03T06:24:28.350Z,7.00
2022-09-03T06:27:30.841Z,6.90
2022-09-03T06:30:32.538Z,6.40
2022-09-03T06:33:36.233Z,6.10
2022-09-03T06:36:38.019Z,5.70
2022-09-03T06:39:39.973Z,5.30
2022-09-03T06:42:45.858Z,6.00
2022-09-03T06:46:00.512Z,5.50
2022-09-03T06:49:02.904Z,5.10
2022-09-03T06:52:04.779Z,6.10
2022-09-03T06:55:07.014Z,5.10
2022-09-03T06:58:09.377Z,5.10
2022-09-03T07:01:17.197Z,4.90
2022-09-03T07:04:20.166Z,5.20
2022-09-03T07:07:22.408Z,5.30
2022-09-03T07:10:24.438Z,5.60
2022-09-03T07:13:26.833Z,5.10
2022-09-03T07:16:37.244Z,5.10
2022-09-03T07:19:39.247Z,5.50
2022-09-03T07:22:40.950Z,5.00
2022-09-03T07:25:42.721Z,5.40
2022-09-03T07:28:46.076Z,5.40
2022-09-03T07:31:51.397Z,4.80
2022-09-03T07:34:53.903Z,5.10
2022-09-03T07:37:55.557Z,5.50
2022-09-03T07:41:00.125Z,5.60
2022-09-03T07:44:05.636Z,5.90
2022-09-03T07:47:07.453Z,5.10
2022-09-03T07:50:09.435Z,5.30
2022-09-03T07:53:11.169Z,6.60
2022-09-03T07:56:13.177Z,5.40
2022-09-03T07:59:14.898Z,5.30
2022-09-03T08:02:16.566Z,5.10
2022-09-03T08:05:21.361Z,5.60
2022-09-03T08:08:23.926Z,5.60
2022-09-03T08:11:26.376Z,5.40
2022-09-03T08:14:30.520Z,5.10
2022-09-03T08:17:32.178Z,5.20
2022-09-03T08:20:34.343Z,5.20
2022-09-03T08:23:40.199Z,4.90
2022-09-03T08:26:46.227Z,5.00
2022-09-03T08:29:52.239Z,5.00
2022-09-03T08:32:56.228Z,5.10
2022-09-03T08:35:58.139Z,4.60
2022-09-03T08:39:08.171Z,4.70
2022-09-03T08:42:21.959Z,4.60
2022-09-03T08:45:24.063Z,5.30
2022-09-03T08:48:28.408Z,5.10
2022-09-03T08:51:32.094Z,4.50
2022-09-03T08:54:33.854Z,4.30
2022-09-03T08:57:41.983Z,4.30
2022-09-03T09:00:48.963Z,4.80
2022-09-03T09:04:07.069Z,4.70
2022-09-03T09:07:18.813Z,5.00
2022-09-03T09:10:29.395Z,4.80
2022-09-03T09:14:00.300Z,4.80
2022-09-03T09:17:23.443Z,5.50
2022-09-03T09:21:07.929Z,5.30
2022-09-03T09:24:19.486Z,4.80
2022-09-03T09:27:21.857Z,5.00
2022-09-03T09:30:23.887Z,19.40
2022-09-03T09:33:26.054Z,9.20
2022-09-03T09:36:28.549Z,8.90
2022-09-03T09:39:32.062Z,5.70
2022-09-03T09:42:33.941Z,5.10
2022-09-03T09:45:35.906Z,5.40
2022-09-03T09:48:39.528Z,6.40
2022-09-03T09:51:41.331Z,5.30
2022-09-03T09:54:48.090Z,5.80
2022-09-03T09:57:53.721Z,5.60
2022-09-03T10:01:00.236Z,5.10
2022-09-03T10:04:10.816Z,5.40
2022-09-03T10:07:33.800Z,5.00
2022-09-03T10:10:43.229Z,5.20
2022-09-03T10:13:48.858Z,8.30
2022-09-03T10:17:04.397Z,14.50
2022-09-03T10:20:31.163Z,6.30
2022-09-03T10:23:43.782Z,5.90
2022-09-03T10:26:46.613Z,5.30
2022-09-03T10:29:49.014Z,5.80
2022-09-03T10:33:05.572Z,5.70
2022-09-03T10:36:20.246Z,5.00
2022-09-03T10:39:27.938Z,5.30
2022-09-03T10:42:45.755Z,4.80
2022-09-03T10:46:08.337Z,5.30
2022-09-03T10:49:31.126Z,5.70
2022-09-03T10:52:45.050Z,5.10
2022-09-03T10:56:02.500Z,4.00
2022-09-03T10:59:34.233Z,4.30
2022-09-03T11:02:53.317Z,5.00
2022-09-03T11:06:06.489Z,4.60
2022-09-03T11:09:14.314Z,5.00
2022-09-03T11:12:47.119Z,4.70
2022-09-03T11:15:52.549Z,4.60
2022-09-03T11:18:58.061Z,4.40
2022-09-03T11:21:59.940Z,4.60
2022-09-03T11:25:02.717Z,4.70
2022-09-03T11:28:21.247Z,4.30
2022-09-03T11:32:00.526Z,5.50
2022-09-03T11:35:02.374Z,4.90
2022-09-03T11:38:21.259Z,4.60
2022-09-03T11:41:35.021Z,4.70
2022-09-03T11:44:51.374Z,4.50
2022-09-03T11:47:54.366Z,5.00
2022-09-03T11:50:56.163Z,5.00
2022-09-03T11:54:11.460Z,5.00
2022-09-03T11:57:24.179Z,4.90
2022-09-03T12:00:26.512Z,5.10
2022-09-03T12:03:36.513Z,5.50
2022-09-03T12:06:56.922Z,5.10
2022-09-03T12:10:01.650Z,4.90
2022-09-03T12:13:17.457Z,5.00
2022-09-03T12:16:37.727Z,5.10
2022-09-03T12:19:56.918Z,4.70
2022-09-03T12:22:58.548Z,4.60
2022-09-03T12:26:07.234Z,4.90
2022-09-03T12:29:22.692Z,5.50
2022-09-03T12:32:38.412Z,6.10
2022-09-03T12:39:13.404Z,5.40
2022-09-03T12:42:21.269Z,5.40
2022-09-03T12:45:25.251Z,5.30
2022-09-03T12:48:27.488Z,5.50
2022-09-03T12:51:54.238Z,5.00
2022-09-03T12:55:00.956Z,5.10
2022-09-03T12:58:14.008Z,5.20
2022-09-03T13:01:45.361Z,4.90
2022-09-03T13:07:53.149Z,4.90
2022-09-03T13:10:57.573Z,5.20
2022-09-03T13:14:06.260Z,6.00
2022-09-03T13:17:10.805Z,5.10
2022-09-03T13:20:25.101Z,5.00
2022-09-03T13:23:53.310Z,4.70
2022-09-03T13:27:25.307Z,4.60
2022-09-03T13:30:40.352Z,5.20
2022-09-03T13:33:45.663Z,4.70
2022-09-03T13:36:57.723Z,4.90
2022-09-03T13:40:04.347Z,4.90
2022-09-03T13:43:21.931Z,4.70
2022-09-03T13:46:52.794Z,4.80
2022-09-03T13:50:22.655Z,4.70
2022-09-03T13:53:42.681Z,4.50
2022-09-03T13:57:08.054Z,4.60
2022-09-03T14:00:12.663Z,4.70
2022-09-03T14:03:37.215Z,4.80
2022-09-03T14:07:03.228Z,4.40
2022-09-03T14:10:11.778Z,4.40
2022-09-03T14:13:25.215Z,4.10
2022-09-03T14:16:36.495Z,4.30
2022-09-03T14:19:49.421Z,5.10
2022-09-03T14:22:59.640Z,4.90
2022-09-03T14:26:04.401Z,4.60
2022-09-03T14:29:12.512Z,4.10
2022-09-03T14:32:30.788Z,4.60
2022-09-03T14:35:51.408Z,4.60
2022-09-03T14:39:24.475Z,4.70
2022-09-03T14:42:53.476Z,4.50
2022-09-03T14:46:06.814Z,4.60
2022-09-03T14:49:49.939Z,4.90
2022-09-03T14:53:00.041Z,5.10
2022-09-03T14:56:18.563Z,5.20
2022-09-03T14:59:47.613Z,4.60
2022-09-03T15:03:13.964Z,4.70
2022-09-03T15:06:53.673Z,4.80
2022-09-03T15:10:13.825Z,4.60
2022-09-03T15:13:23.099Z,4.40
2022-09-03T15:16:38.682Z,4.30
2022-09-03T15:19:56.048Z,4.40
2022-09-03T15:23:42.596Z,4.30
2022-09-03T15:27:09.777Z,4.40
2022-09-03T15:30:13.604Z,4.50
2022-09-03T15:33:36.029Z,4.70
2022-09-03T15:36:41.781Z,5.20
2022-09-03T15:39:45.134Z,5.30
2022-09-03T15:42:48.835Z,5.00
2022-09-03T15:46:01.136Z,4.80
2022-09-03T15:49:21.774Z,4.50
2022-09-03T15:52:47.666Z,4.60
2022-09-03T15:56:19.194Z,4.60
2022-09-03T15:59:33.338Z,4.70
2022-09-03T16:02:52.441Z,5.00
2022-09-03T16:06:02.350Z,4.70
2022-09-03T16:09:27.200Z,4.90
2022-09-03T16:12:35.036Z,5.10
2022-09-03T16:15:44.106Z,4.70
2022-09-03T16:18:57.833Z,4.90
2022-09-03T16:22:02.305Z,4.70
2022-09-03T16:25:38.774Z,4.70
2022-09-03T16:28:59.301Z,4.40
2022-09-03T16:32:17.429Z,4.70
2022-09-03T16:35:28.329Z,4.50
2022-09-03T16:38:55.297Z,5.10
2022-09-03T16:42:25.148Z,4.70
2022-09-03T16:46:08.878Z,4.90
2022-09-03T16:49:18.342Z,4.20
2022-09-03T16:52:59.350Z,4.70
2022-09-03T16:56:16.370Z,5.00
2022-09-03T16:59:33.435Z,5.30
2022-09-03T17:02:59.069Z,6.60
2022-09-03T17:06:38.635Z,6.70
2022-09-03T17:10:11.105Z,5.50
2022-09-03T17:13:31.881Z,8.40
2022-09-03T17:16:42.628Z,9.50
2022-09-03T17:19:51.653Z,7.00
2022-09-03T17:23:19.860Z,6.30
2022-09-03T17:26:29.996Z,6.60
2022-09-03T17:29:50.662Z,6.70
2022-09-03T17:33:27.692Z,6.00
2022-09-03T17:36:31.432Z,6.70
2022-09-03T17:39:54.370Z,6.20
2022-09-03T17:43:03.651Z,7.00
2022-09-03T17:46:08.518Z,10.50
2022-09-03T17:49:17.430Z,8.00
2022-09-03T17:52:29.728Z,7.80
2022-09-03T17:55:42.332Z,8.30
2022-09-03T17:58:51.257Z,7.60
2022-09-03T18:01:59.127Z,7.30
2022-09-03T18:05:07.642Z,8.00
2022-09-03T18:08:19.202Z,7.50
2022-09-03T18:11:43.435Z,7.50
2022-09-03T18:14:51.794Z,8.10
2022-09-03T18:18:08.046Z,7.90
2022-09-03T18:21:32.071Z,7.80
2022-09-03T18:25:02.789Z,8.30
2022-09-03T18:28:26.345Z,8.10
2022-09-03T18:31:46.865Z,7.50
2022-09-03T18:35:07.381Z,7.10
2022-09-03T18:38:28.317Z,6.80
2022-09-03T18:42:06.763Z,7.30
2022-09-03T18:49:58.988Z,7.30
2022-09-03T18:53:29.665Z,7.80
2022-09-03T18:57:07.094Z,6.90
2022-09-03T19:00:31.153Z,6.90
2022-09-03T19:04:03.957Z,7.80
2022-09-03T19:07:30.305Z,7.80
2022-09-03T19:11:26.589Z,7.30
2022-09-03T19:15:10.138Z,8.00
2022-09-03T19:18:58.715Z,7.40
2022-09-03T19:22:27.061Z,7.30
2022-09-03T19:25:49.131Z,7.90
2022-09-03T19:29:15.763Z,8.00
2022-09-03T19:32:39.403Z,8.90
2022-09-03T19:36:13.723Z,7.70
2022-09-03T19:39:59.550Z,8.40
2022-09-03T19:43:41.263Z,8.00
2022-09-03T19:47:01.478Z,9.50
2022-09-03T19:50:40.688Z,8.30
2022-09-03T19:54:01.176Z,8.30
2022-09-03T19:57:22.085Z,8.80
2022-09-03T20:00:42.601Z,9.40
2022-09-03T20:04:03.551Z,9.70
2022-09-03T20:07:27.809Z,10.00
2022-09-03T20:10:29.545Z,8.50
2022-09-03T20:13:52.073Z,9.20
2022-09-03T20:17:10.278Z,9.10
2022-09-03T20:20:18.029Z,8.70
2022-09-03T20:23:33.043Z,9.30
2022-09-03T20:26:42.241Z,9.00
2022-09-03T20:30:19.716Z,9.60
2022-09-03T20:33:32.691Z,9.40
2022-09-03T20:36:49.755Z,9.50
2022-09-03T20:39:57.571Z,8.90
2022-09-03T20:43:05.394Z,9.00
2022-09-03T20:46:10.000Z,10.50
2022-09-03T20:49:19.061Z,9.10
2022-09-03T20:52:41.170Z,9.60
2022-09-03T20:55:45.259Z,9.40
2022-09-03T20:59:17.225Z,9.30
2022-09-03T21:02:37.914Z,10.30
2022-09-03T21:05:58.507Z,9.70
2022-09-03T21:09:20.991Z,9.90
2022-09-03T21:12:41.634Z,9.50
2022-09-03T21:15:50.321Z,10.20
2022-09-03T21:19:32.238Z,10.30
2022-09-03T21:22:48.738Z,9.70
2022-09-03T21:26:21.618Z,9.70
2022-09-03T21:29:29.711Z,10.20
2022-09-03T21:32:40.014Z,10.10
2022-09-03T21:35:50.751Z,9.80
2022-09-03T21:39:07.926Z,10.10
2022-09-03T21:42:36.624Z,10.40
2022-09-03T21:45:43.902Z,11.10
2022-09-03T21:49:00.861Z,10.70
2022-09-03T21:52:09.224Z,10.70
2022-09-03T21:55:42.052Z,10.90
2022-09-03T21:59:16.741Z,11.00
2022-09-03T22:02:25.615Z,11.20
2022-09-03T22:05:46.655Z,10.60
2022-09-03T22:08:59.390Z,10.70
2022-09-03T22:12:33.321Z,11.50
2022-09-03T22:15:38.380Z,11.10
2022-09-03T22:18:40.193Z,11.90
2022-09-03T22:22:00.002Z,11.80
2022-09-03T22:25:09.340Z,11.20
2022-09-03T22:28:18.093Z,12.00
2022-09-03T22:31:39.305Z,11.50
2022-09-03T22:34:44.371Z,11.70
2022-09-03T22:38:13.581Z,11.80
2022-09-03T22:41:34.830Z,12.50
2022-09-03T22:45:00.653Z,13.30
2022-09-03T22:48:19.939Z,12.50
2022-09-03T22:51:22.121Z,13.30
2022-09-03T22:54:37.026Z,13.50
2022-09-03T22:57:46.534Z,13.70
2022-09-03T23:01:18.952Z,13.60
2022-09-03T23:04:42.161Z,13.10
2022-09-03T23:07:54.835Z,12.90
2022-09-03T23:11:03.907Z,13.30
2022-09-03T23:14:09.861Z,14.00
2022-09-03T23:20:34.858Z,13.80
2022-09-03T23:23:41.129Z,13.70
2022-09-03T23:26:52.580Z,13.80
2022-09-03T23:32:59.143Z,13.60
2022-09-03T23:36:08.473Z,14.00
2022-09-03T23:39:35.769Z,15.10
2022-09-03T23:42:49.023Z,16.00
2022-09-03T23:46:04.025Z,15.00
2022-09-03T23:49:16.859Z,15.20
2022-09-03T23:52:38.046Z,15.60
2022-09-03T23:55:58.858Z,15.30
2022-09-03T23:59:40.783Z,15.40
